Time;durP1;ratioP1;P1;durP2;ratioP2;P2;SDS_P1;SDS_P2;PMS_P1;PMS_P2;Temp;Humidity;BMP_temperature;BMP_pressure;BME280_temperature;BME280_humidity;BME280_pressure;Samples;Min_cycle;Max_cycle;Signal;HPM_P1;HPM_P2
2022/10/16 00:02:06;;;;;;;6.43;2.00;;;;;;;;;;6159908;23;20021;-81
2022/10/16 00:04:33;;;;;;;7.25;2.53;;;;;;;;;;6158871;23;20030;-81
2022/10/16 00:06:59;;;;;;;5.53;2.10;;;;;;;;;;6158900;23;20030;-81
2022/10/16 00:10:20;;;;;;;5.63;1.85;;;;;;;;;;5140274;27;20160;-80
2022/10/16 00:12:46;;;;;;;5.30;2.45;;;;;;;;;;5123374;27;20035;-80
2022/10/16 00:15:12;;;;;;;7.80;2.00;;;;;;;;;;5123633;27;20056;-81
2022/10/16 00:17:39;;;;;;;8.20;2.15;;;;;;;;;;5122404;27;20048;-79
2022/10/16 00:20:05;;;;;;;5.20;2.00;;;;;;;;;;5112754;27;20628;-80
2022/10/16 00:22:32;;;;;;;7.65;2.20;;;;;;;;;;5119572;27;20056;-80
2022/10/16 00:24:58;;;;;;;10.15;2.50;;;;;;;;;;5119865;27;20169;-80
2022/10/16 00:27:25;;;;;;;9.43;2.33;;;;;;;;;;5128107;27;20048;-81
2022/10/16 00:29:52;;;;;;;7.32;2.35;;;;;;;;;;5113079;27;20048;-81
2022/10/16 00:32:19;;;;;;;7.68;2.10;;;;;;;;;;5124136;27;20043;-81
2022/10/16 00:34:45;;;;;;;6.95;2.17;;;;;;;;;;5123448;27;20896;-80
2022/10/16 00:37:12;;;;;;;11.30;2.53;;;;;;;;;;5127940;27;20052;-80
2022/10/16 00:39:38;;;;;;;9.07;2.65;;;;;;;;;;5121762;27;20059;-80
2022/10/16 00:42:05;;;;;;;5.90;2.30;;;;;;;;;;5113610;27;20507;-80
2022/10/16 00:45:00;;;;;;;6.13;2.17;;;;;;;;;;5125529;27;20101;-81
2022/10/16 00:47:30;;;;;;;9.07;2.40;;;;;;;;;;5095715;27;20053;-80
2022/10/16 00:49:58;;;;;;;7.32;2.50;;;;;;;;;;5128169;27;20044;-80
2022/10/16 00:52:25;;;;;;;5.43;2.30;;;;;;;;;;5133176;27;20044;-80
2022/10/16 00:54:52;;;;;;;6.28;2.50;;;;;;;;;;5114228;27;20880;-80
2022/10/16 00:57:19;;;;;;;9.30;2.40;;;;;;;;;;5118723;27;20056;-79
2022/10/16 00:59:45;;;;;;;6.28;2.35;;;;;;;;;;5125494;27;20048;-80
2022/10/16 01:02:13;;;;;;;8.80;2.50;;;;;;;;;;5128048;27;20052;-80
2022/10/16 01:04:41;;;;;;;4.80;2.20;;;;;;;;;;5114950;27;20060;-81
2022/10/16 01:07:14;;;;;;;8.90;2.40;;;;;;;;;;5125748;27;20052;-81
2022/10/16 01:09:49;;;;;;;6.68;2.65;;;;;;;;;;5113679;27;20051;-81
2022/10/16 01:12:41;;;;;;;6.20;2.80;;;;;;;;;;5117664;27;21088;-80
2022/10/16 01:15:25;;;;;;;8.15;2.50;;;;;;;;;;5125229;27;20055;-80
2022/10/16 01:17:53;;;;;;;7.80;2.67;;;;;;;;;;5118134;27;20154;-79
2022/10/16 01:20:19;;;;;;;10.30;2.47;;;;;;;;;;5117881;27;20079;-80
2022/10/16 01:23:04;;;;;;;5.60;2.40;;;;;;;;;;5098318;27;20086;-80
2022/10/16 01:25:30;;;;;;;6.80;2.75;;;;;;;;;;5107176;27;20102;-80
2022/10/16 01:27:57;;;;;;;8.50;2.65;;;;;;;;;;5101671;28;20909;-81
2022/10/16 01:30:25;;;;;;;7.63;2.38;;;;;;;;;;5099055;27;20059;-80
2022/10/16 01:32:58;;;;;;;5.68;2.30;;;;;;;;;;5112096;27;20057;-81
2022/10/16 01:35:34;;;;;;;6.85;2.42;;;;;;;;;;5110801;27;20033;-80
2022/10/16 01:38:04;;;;;;;7.45;2.20;;;;;;;;;;5100603;28;21290;-80
2022/10/16 01:40:32;;;;;;;5.10;2.20;;;;;;;;;;5116789;27;20040;-81
2022/10/16 01:43:00;;;;;;;6.35;2.50;;;;;;;;;;5106130;27;20060;-80
2022/10/16 01:45:28;;;;;;;7.93;2.58;;;;;;;;;;5113585;27;20078;-80
2022/10/16 01:47:54;;;;;;;6.18;2.35;;;;;;;;;;5134053;27;20059;-81
2022/10/16 01:50:21;;;;;;;6.70;2.60;;;;;;;;;;5109385;27;20786;-80
2022/10/16 01:52:50;;;;;;;6.78;2.65;;;;;;;;;;5111983;27;20071;-80
2022/10/16 01:55:20;;;;;;;7.75;3.10;;;;;;;;;;5099578;27;20052;-80
2022/10/16 01:57:48;;;;;;;8.05;2.78;;;;;;;;;;5108744;27;20911;-81
2022/10/16 02:00:15;;;;;;;8.00;2.70;;;;;;;;;;5110729;27;20105;-80
2022/10/16 02:02:43;;;;;;;5.13;2.30;;;;;;;;;;5108816;27;20423;-80
2022/10/16 02:05:14;;;;;;;7.18;2.95;;;;;;;;;;5099747;27;20049;-80
2022/10/16 02:07:41;;;;;;;7.97;3.13;;;;;;;;;;5107427;27;20079;-81
2022/10/16 02:10:09;;;;;;;8.00;2.58;;;;;;;;;;5098989;27;20059;-80
2022/10/16 02:12:36;;;;;;;5.72;2.70;;;;;;;;;;5111702;27;20052;-81
2022/10/16 02:15:03;;;;;;;8.68;2.63;;;;;;;;;;5116469;27;20059;-80
2022/10/16 02:17:29;;;;;;;8.40;2.63;;;;;;;;;;5110679;27;20047;-80
2022/10/16 02:19:56;;;;;;;5.50;2.50;;;;;;;;;;5107490;27;20063;-80
2022/10/16 02:22:25;;;;;;;7.05;2.50;;;;;;;;;;5102824;27;20052;-78
2022/10/16 02:24:56;;;;;;;5.80;2.42;;;;;;;;;;5093888;28;20884;-78
2022/10/16 02:27:22;;;;;;;;;;;;;;;;;;5093853;27;20074;-78
2022/10/16 02:29:52;;;;;;;5.80;2.53;;;;;;;;;;5107015;28;44589;-78
2022/10/16 02:32:20;;;;;;;5.97;3.10;;;;;;;;;;5096701;27;20052;-78
2022/10/16 02:34:48;;;;;;;5.57;2.85;;;;;;;;;;5097853;27;20131;-78
2022/10/16 02:37:16;;;;;;;6.80;3.20;;;;;;;;;;5093005;27;20057;-79
2022/10/16 02:39:42;;;;;;;7.68;3.20;;;;;;;;;;5100634;27;21784;-79
2022/10/16 02:42:12;;;;;;;7.15;3.30;;;;;;;;;;5102343;28;20040;-79
2022/10/16 02:44:38;;;;;;;6.85;3.13;;;;;;;;;;5093911;27;20068;-79
2022/10/16 02:47:05;;;;;;;7.32;3.13;;;;;;;;;;5108399;28;20059;-79
2022/10/16 02:49:31;;;;;;;8.35;3.00;;;;;;;;;;5106159;27;20067;-79
2022/10/16 02:51:57;;;;;;;7.65;3.03;;;;;;;;;;5102637;27;20052;-79
2022/10/16 02:54:24;;;;;;;5.95;2.70;;;;;;;;;;5094460;27;20515;-79
2022/10/16 02:56:50;;;;;;;8.05;2.50;;;;;;;;;;5094339;27;20036;-79
2022/10/16 02:59:16;;;;;;;5.10;2.70;;;;;;;;;;5095604;27;20806;-79
2022/10/16 03:01:43;;;;;;;8.68;2.90;;;;;;;;;;5097104;27;20056;-79
2022/10/16 03:04:09;;;;;;;6.00;2.75;;;;;;;;;;5102726;27;20075;-79
2022/10/16 03:06:35;;;;;;;5.95;2.70;;;;;;;;;;5097619;27;20060;-79
2022/10/16 03:09:01;;;;;;;6.05;2.80;;;;;;;;;;5093993;27;20055;-79
2022/10/16 03:11:28;;;;;;;8.07;2.78;;;;;;;;;;5096492;27;20052;-79
2022/10/16 03:13:54;;;;;;;7.88;2.83;;;;;;;;;;5092725;27;20106;-79
2022/10/16 03:16:20;;;;;;;6.50;2.60;;;;;;;;;;5105944;27;20086;-79
2022/10/16 03:18:49;;;;;;;10.82;3.42;;;;;;;;;;5096937;27;20060;-79
2022/10/16 03:21:16;;;;;;;6.47;3.00;;;;;;;;;;5098574;27;20057;-79
2022/10/16 03:23:42;;;;;;;7.78;3.05;;;;;;;;;;5099034;27;20056;-79
2022/10/16 03:26:09;;;;;;;9.65;3.13;;;;;;;;;;5102100;27;20052;-79
2022/10/16 03:28:35;;;;;;;8.68;3.33;;;;;;;;;;5094750;27;20056;-79
2022/10/16 03:31:02;;;;;;;6.65;2.97;;;;;;;;;;5089968;27;20154;-80
2022/10/16 03:33:28;;;;;;;9.10;3.20;;;;;;;;;;5097889;27;20067;-79
2022/10/16 03:35:54;;;;;;;9.60;3.08;;;;;;;;;;5102997;27;20047;-79
2022/10/16 03:38:21;;;;;;;6.97;2.92;;;;;;;;;;5101467;27;20079;-79
2022/10/16 03:40:47;;;;;;;6.00;2.70;;;;;;;;;;5094525;27;20040;-79
2022/10/16 03:43:13;;;;;;;7.22;3.15;;;;;;;;;;5098106;27;20142;-79
2022/10/16 03:45:44;;;;;;;7.75;2.88;;;;;;;;;;5099306;27;20056;-79
2022/10/16 03:48:11;;;;;;;4.22;2.38;;;;;;;;;;5096910;27;20059;-79
2022/10/16 03:50:37;;;;;;;10.55;2.40;;;;;;;;;;5110607;27;20056;-79
2022/10/16 03:53:05;;;;;;;6.43;2.80;;;;;;;;;;5094919;27;20052;-79
2022/10/16 03:55:32;;;;;;;9.57;2.42;;;;;;;;;;5113887;27;20099;-79
2022/10/16 03:57:58;;;;;;;6.45;2.47;;;;;;;;;;5097954;27;20057;-79
2022/10/16 04:00:24;;;;;;;5.60;2.40;;;;;;;;;;5099674;27;20044;-79
2022/10/16 04:02:51;;;;;;;7.28;2.30;;;;;;;;;;5115084;27;20056;-79
2022/10/16 04:05:17;;;;;;;5.20;2.30;;;;;;;;;;5096201;27;20059;-79
2022/10/16 04:07:43;;;;;;;8.52;2.65;;;;;;;;;;5095639;27;20059;-79
2022/10/16 04:10:10;;;;;;;8.30;2.72;;;;;;;;;;5089028;27;20508;-79
2022/10/16 04:12:36;;;;;;;6.75;2.30;;;;;;;;;;5098789;28;20057;-79
2022/10/16 04:15:02;;;;;;;4.75;2.30;;;;;;;;;;5097686;27;20056;-79
2022/10/16 04:17:29;;;;;;;5.38;2.28;;;;;;;;;;5110957;27;20043;-79
2022/10/16 04:19:55;;;;;;;6.68;2.63;;;;;;;;;;5091314;27;20288;-79
2022/10/16 04:22:21;;;;;;;6.00;2.58;;;;;;;;;;5096245;27;20063;-79
2022/10/16 04:24:47;;;;;;;6.03;2.30;;;;;;;;;;5101350;28;20053;-79
2022/10/16 04:27:14;;;;;;;5.70;2.10;;;;;;;;;;5090805;27;20060;-79
2022/10/16 04:29:40;;;;;;;7.63;2.30;;;;;;;;;;5096746;27;20053;-79
2022/10/16 04:32:08;;;;;;;4.80;2.20;;;;;;;;;;5098380;27;20047;-80
2022/10/16 04:34:34;;;;;;;6.53;2.90;;;;;;;;;;5097957;27;20064;-79
2022/10/16 04:37:00;;;;;;;6.25;2.22;;;;;;;;;;5090245;27;20053;-79
2022/10/16 04:39:27;;;;;;;6.47;2.30;;;;;;;;;;5097122;27;20102;-79
2022/10/16 04:41:53;;;;;;;5.55;2.10;;;;;;;;;;5097253;27;20052;-79
2022/10/16 04:44:19;;;;;;;8.05;2.35;;;;;;;;;;5090350;27;20056;-79
2022/10/16 04:46:45;;;;;;;5.13;2.10;;;;;;;;;;5104340;27;20060;-79
2022/10/16 04:49:12;;;;;;;8.98;2.40;;;;;;;;;;5111684;27;20434;-79
2022/10/16 04:51:38;;;;;;;5.93;2.60;;;;;;;;;;5100039;27;20048;-79
2022/10/16 04:54:04;;;;;;;5.53;2.30;;;;;;;;;;5095382;27;20083;-79
2022/10/16 04:56:30;;;;;;;5.20;2.50;;;;;;;;;;5099407;27;20052;-79
2022/10/16 04:58:57;;;;;;;8.10;2.50;;;;;;;;;;5095862;27;22405;-79
2022/10/16 05:01:23;;;;;;;6.40;2.45;;;;;;;;;;5109183;27;20087;-79
2022/10/16 05:03:49;;;;;;;5.28;2.25;;;;;;;;;;5103243;27;20056;-79
2022/10/16 05:06:15;;;;;;;6.50;2.40;;;;;;;;;;5098132;27;20053;-79
2022/10/16 05:08:42;;;;;;;6.38;2.70;;;;;;;;;;5102165;27;20055;-79
2022/10/16 05:11:08;;;;;;;5.93;2.30;;;;;;;;;;5096941;27;20052;-79
2022/10/16 05:13:34;;;;;;;5.85;2.40;;;;;;;;;;5097794;27;20078;-79
2022/10/16 05:16:01;;;;;;;5.25;2.10;;;;;;;;;;5105821;27;20053;-79
2022/10/16 05:18:27;;;;;;;4.65;2.15;;;;;;;;;;5092975;27;20075;-79
2022/10/16 05:20:53;;;;;;;5.63;2.60;;;;;;;;;;5101047;27;20940;-79
2022/10/16 05:23:19;;;;;;;7.32;2.30;;;;;;;;;;5100673;27;20554;-80
2022/10/16 05:25:51;;;;;;;6.38;2.22;;;;;;;;;;5093562;27;20052;-80
2022/10/16 05:28:18;;;;;;;8.45;3.00;;;;;;;;;;5103655;27;20056;-80
2022/10/16 05:30:44;;;;;;;5.38;2.63;;;;;;;;;;5107954;27;20139;-80
2022/10/16 05:33:10;;;;;;;5.25;2.35;;;;;;;;;;5105062;27;20035;-80
2022/10/16 05:35:36;;;;;;;6.90;2.42;;;;;;;;;;5115576;27;20514;-80
2022/10/16 05:38:03;;;;;;;6.20;2.35;;;;;;;;;;5100798;27;21350;-80
2022/10/16 05:40:29;;;;;;;8.73;2.55;;;;;;;;;;5106571;28;20055;-80
2022/10/16 05:42:55;;;;;;;5.32;2.42;;;;;;;;;;5098823;27;20086;-81
2022/10/16 05:45:22;;;;;;;7.25;2.78;;;;;;;;;;5101251;27;20693;-80
2022/10/16 05:47:48;;;;;;;5.93;2.42;;;;;;;;;;5101349;27;20056;-81
2022/10/16 05:50:14;;;;;;;9.63;2.80;;;;;;;;;;5103087;27;20056;-80
2022/10/16 05:52:40;;;;;;;6.28;2.53;;;;;;;;;;5097267;27;20063;-79
2022/10/16 05:55:07;;;;;;;8.57;3.88;;;;;;;;;;5101341;27;20098;-79
2022/10/16 05:57:33;;;;;;;7.03;3.00;;;;;;;;;;5113981;27;20060;-79
2022/10/16 05:59:59;;;;;;;6.80;2.60;;;;;;;;;;5113857;27;20052;-79
2022/10/16 06:02:26;;;;;;;8.55;3.10;;;;;;;;;;5102492;27;20052;-79
2022/10/16 06:04:53;;;;;;;8.50;3.08;;;;;;;;;;5094379;27;20594;-80
2022/10/16 06:07:20;;;;;;;6.50;3.42;;;;;;;;;;5099000;27;20048;-80
2022/10/16 06:09:49;;;;;;;7.45;3.05;;;;;;;;;;5101566;28;20059;-80
2022/10/16 06:12:16;;;;;;;7.32;3.25;;;;;;;;;;5101339;27;20052;-81
2022/10/16 06:14:42;;;;;;;9.10;3.20;;;;;;;;;;5109796;27;20047;-80
2022/10/16 06:17:14;;;;;;;8.13;3.25;;;;;;;;;;5092648;27;20053;-80
2022/10/16 06:19:41;;;;;;;10.80;3.45;;;;;;;;;;5102353;27;20048;-79
2022/10/16 06:22:07;;;;;;;10.50;3.03;;;;;;;;;;5095398;27;20060;-80
2022/10/16 06:24:33;;;;;;;7.20;3.47;;;;;;;;;;5104407;27;20060;-79
2022/10/16 06:27:00;;;;;;;8.80;3.40;;;;;;;;;;5099520;27;20047;-79
2022/10/16 06:29:26;;;;;;;5.43;3.15;;;;;;;;;;5097583;27;20731;-80
2022/10/16 06:31:52;;;;;;;6.63;3.08;;;;;;;;;;5106249;27;20036;-80
2022/10/16 06:34:19;;;;;;;8.82;3.35;;;;;;;;;;5097815;27;20056;-80
2022/10/16 06:36:45;;;;;;;7.55;2.83;;;;;;;;;;5099684;27;20059;-79
2022/10/16 06:39:11;;;;;;;9.55;3.08;;;;;;;;;;5101630;27;20061;-79
2022/10/16 06:41:38;;;;;;;10.00;3.83;;;;;;;;;;5099441;28;20056;-79
2022/10/16 06:44:07;;;;;;;7.97;3.25;;;;;;;;;;5096804;27;20059;-79
2022/10/16 06:46:34;;;;;;;5.85;3.13;;;;;;;;;;5101890;27;20056;-81
2022/10/16 06:49:00;;;;;;;9.35;3.20;;;;;;;;;;5112612;27;20064;-82
2022/10/16 06:51:26;;;;;;;5.90;2.38;;;;;;;;;;5106035;27;20580;-81
2022/10/16 06:53:54;;;;;;;6.97;2.53;;;;;;;;;;5103868;27;20102;-82
2022/10/16 06:56:31;;;;;;;9.05;2.55;;;;;;;;;;5104379;27;20075;-82
2022/10/16 06:58:58;;;;;;;7.68;2.60;;;;;;;;;;5109003;27;20048;-82
2022/10/16 07:01:25;;;;;;;6.32;2.80;;;;;;;;;;5109633;27;20059;-81
2022/10/16 07:03:51;;;;;;;7.80;2.38;;;;;;;;;;5103594;27;20091;-81
2022/10/16 07:06:19;;;;;;;7.13;2.58;;;;;;;;;;5094099;27;20082;-81
2022/10/16 07:08:46;;;;;;;5.50;2.00;;;;;;;;;;5093615;27;20059;-81
2022/10/16 07:11:14;;;;;;;5.95;2.50;;;;;;;;;;5100371;27;20060;-81
2022/10/16 07:13:42;;;;;;;5.97;2.63;;;;;;;;;;5100673;27;20580;-81
2022/10/16 07:16:12;;;;;;;9.40;2.53;;;;;;;;;;5102099;27;20063;-81
2022/10/16 07:18:42;;;;;;;6.85;2.08;;;;;;;;;;5099511;27;20131;-82
2022/10/16 07:21:10;;;;;;;5.40;2.30;;;;;;;;;;5109298;27;20055;-82
2022/10/16 07:23:36;;;;;;;8.38;2.33;;;;;;;;;;5106741;27;20060;-82
2022/10/16 07:26:03;;;;;;;6.50;2.33;;;;;;;;;;5104423;28;20056;-81
2022/10/16 07:28:30;;;;;;;9.25;2.53;;;;;;;;;;5089989;28;20052;-81
2022/10/16 07:30:59;;;;;;;13.43;2.63;;;;;;;;;;5092935;28;20148;-81
2022/10/16 07:33:25;;;;;;;5.90;2.40;;;;;;;;;;5092328;28;20059;-81
2022/10/16 07:35:53;;;;;;;7.88;2.55;;;;;;;;;;5109129;27;20052;-81
2022/10/16 07:38:19;;;;;;;8.30;2.40;;;;;;;;;;5110983;27;20048;-81
2022/10/16 07:40:45;;;;;;;5.38;2.08;;;;;;;;;;5109156;28;20052;-82
2022/10/16 07:43:12;;;;;;;6.45;2.35;;;;;;;;;;5100522;27;20056;-83
2022/10/16 07:45:46;;;;;;;7.63;2.42;;;;;;;;;;5107998;28;20051;-83
2022/10/16 07:48:12;;;;;;;5.72;2.20;;;;;;;;;;5108315;28;20091;-82
2022/10/16 07:50:39;;;;;;;6.72;2.45;;;;;;;;;;5108153;27;20090;-83
2022/10/16 07:53:05;;;;;;;7.22;2.95;;;;;;;;;;5108511;27;20521;-82
2022/10/16 07:55:32;;;;;;;10.02;2.90;;;;;;;;;;5107895;27;20121;-82
2022/10/16 07:57:59;;;;;;;6.88;2.63;;;;;;;;;;5108498;27;20611;-82
2022/10/16 08:00:26;;;;;;;8.00;2.60;;;;;;;;;;5109331;27;20052;-80
2022/10/16 08:02:53;;;;;;;5.70;2.50;;;;;;;;;;5108150;27;20117;-80
2022/10/16 08:05:19;;;;;;;6.25;2.58;;;;;;;;;;5109272;27;20052;-80
2022/10/16 08:07:49;;;;;;;7.38;2.95;;;;;;;;;;5105624;27;20049;-80
2022/10/16 08:10:16;;;;;;;5.80;2.47;;;;;;;;;;5090026;27;20053;-79
2022/10/16 08:12:44;;;;;;;9.43;2.45;;;;;;;;;;5104047;27;20060;-79
2022/10/16 08:15:10;;;;;;;5.55;2.70;;;;;;;;;;5110402;27;20052;-80
2022/10/16 08:17:36;;;;;;;6.07;2.80;;;;;;;;;;5103925;27;20056;-81
2022/10/16 08:20:03;;;;;;;8.30;2.30;;;;;;;;;;5101719;27;20595;-81
2022/10/16 08:22:30;;;;;;;6.18;2.25;;;;;;;;;;5096606;27;20581;-83
2022/10/16 08:24:56;;;;;;;6.95;2.55;;;;;;;;;;5095613;27;20102;-83
2022/10/16 08:27:22;;;;;;;5.80;2.30;;;;;;;;;;5095972;27;20057;-81
2022/10/16 08:29:49;;;;;;;8.98;2.40;;;;;;;;;;5104372;27;20060;-82
2022/10/16 08:32:16;;;;;;;7.05;2.25;;;;;;;;;;5103971;27;20106;-82
2022/10/16 08:34:42;;;;;;;11.02;2.30;;;;;;;;;;5105047;28;20518;-82
2022/10/16 08:37:11;;;;;;;7.70;2.17;;;;;;;;;;5107322;28;20052;-81
2022/10/16 08:39:37;;;;;;;6.40;2.15;;;;;;;;;;5110446;28;20052;-81
2022/10/16 08:42:09;;;;;;;7.32;2.35;;;;;;;;;;5101591;27;20048;-81
2022/10/16 08:45:05;;;;;;;11.45;2.40;;;;;;;;;;5106303;27;20059;-80
2022/10/16 08:47:50;;;;;;;5.15;1.75;;;;;;;;;;5001331;27;20061;-80
2022/10/16 08:50:27;;;;;;;11.43;2.10;;;;;;;;;;5105160;27;20555;-81
2022/10/16 08:52:55;;;;;;;6.63;2.05;;;;;;;;;;5105302;27;20064;-81
2022/10/16 08:55:28;;;;;;;8.85;1.92;;;;;;;;;;5109749;27;20055;-80
2022/10/16 08:57:57;;;;;;;7.03;1.90;;;;;;;;;;5106419;27;20044;-79
2022/10/16 09:00:24;;;;;;;8.30;2.00;;;;;;;;;;5095007;27;20051;-79
2022/10/16 09:02:53;;;;;;;5.63;1.85;;;;;;;;;;5108866;28;20135;-79
2022/10/16 09:05:19;;;;;;;5.68;1.88;;;;;;;;;;5104674;27;20131;-79
2022/10/16 09:07:51;;;;;;;7.50;1.85;;;;;;;;;;5102737;27;20059;-79
2022/10/16 09:10:31;;;;;;;7.53;1.52;;;;;;;;;;5101843;27;20086;-79
2022/10/16 09:13:02;;;;;;;7.63;2.00;;;;;;;;;;5099864;28;20055;-75
2022/10/16 09:15:39;;;;;;;8.07;1.98;;;;;;;;;;5095886;27;20056;-79
2022/10/16 09:18:12;;;;;;;9.65;1.83;;;;;;;;;;5105559;28;20052;-80
2022/10/16 09:20:54;;;;;;;6.38;2.00;;;;;;;;;;5108034;27;20102;-81
2022/10/16 09:23:33;;;;;;;6.82;1.60;;;;;;;;;;5107667;27;20056;-80
2022/10/16 09:25:59;;;;;;;7.80;1.92;;;;;;;;;;5100791;27;20049;-80
2022/10/16 09:28:25;;;;;;;9.23;2.10;;;;;;;;;;5106863;27;20052;-78
2022/10/16 09:30:52;;;;;;;8.60;2.10;;;;;;;;;;5108647;27;20588;-80
2022/10/16 09:33:19;;;;;;;10.30;2.30;;;;;;;;;;5109319;27;20052;-80
2022/10/16 09:35:49;;;;;;;7.22;1.80;;;;;;;;;;5105374;27;20770;-80
2022/10/16 09:38:23;;;;;;;8.60;1.83;;;;;;;;;;5105641;28;20063;-81
2022/10/16 09:40:52;;;;;;;8.82;2.67;;;;;;;;;;5100762;27;20041;-80
2022/10/16 09:43:32;;;;;;;6.10;2.10;;;;;;;;;;5103439;27;20052;-80
2022/10/16 09:46:06;;;;;;;17.08;2.20;;;;;;;;;;5106852;27;20043;-80
2022/10/16 09:48:43;;;;;;;9.63;1.90;;;;;;;;;;5105821;27;20052;-80
2022/10/16 09:51:21;;;;;;;8.55;1.95;;;;;;;;;;5097314;27;20052;-80
2022/10/16 09:53:47;;;;;;;6.70;1.70;;;;;;;;;;5114535;27;20052;-79
2022/10/16 09:56:22;;;;;;;8.27;2.03;;;;;;;;;;5101129;27;20581;-79
2022/10/16 09:58:56;;;;;;;9.70;1.58;;;;;;;;;;5105896;27;20514;-79
2022/10/16 10:01:26;;;;;;;12.00;2.20;;;;;;;;;;5098059;27;20060;-80
2022/10/16 10:04:00;;;;;;;8.00;1.87;;;;;;;;;;5099026;27;20055;-80
2022/10/16 10:06:28;;;;;;;7.25;2.30;;;;;;;;;;5102534;28;20043;-80
2022/10/16 10:09:00;;;;;;;7.13;1.63;;;;;;;;;;5115710;27;20057;-80
2022/10/16 10:11:37;;;;;;;10.13;1.95;;;;;;;;;;5107261;28;20110;-79
2022/10/16 10:14:04;;;;;;;8.32;1.88;;;;;;;;;;5100991;28;20547;-79
2022/10/16 10:16:31;;;;;;;10.00;2.00;;;;;;;;;;5113299;27;20054;-80
2022/10/16 10:18:57;;;;;;;10.98;2.10;;;;;;;;;;5105332;27;20098;-79
2022/10/16 10:21:24;;;;;;;9.50;2.08;;;;;;;;;;5093891;27;20045;-80
2022/10/16 10:23:57;;;;;;;10.85;1.70;;;;;;;;;;5099338;27;20061;-78
2022/10/16 10:26:28;;;;;;;5.13;1.38;;;;;;;;;;5099388;28;20059;-79
2022/10/16 10:29:10;;;;;;;11.35;1.85;;;;;;;;;;5100936;27;21011;-79
2022/10/16 10:31:41;;;;;;;10.55;1.88;;;;;;;;;;5102117;27;20056;-79
2022/10/16 10:34:07;;;;;;;10.60;1.48;;;;;;;;;;5101237;27;20048;-79
2022/10/16 10:36:36;;;;;;;18.45;3.15;;;;;;;;;;5100889;28;20054;-75
2022/10/16 10:39:25;;;;;;;21.75;11.40;;;;;;;;;;5104676;27;20082;-78
2022/10/16 10:42:00;;;;;;;13.85;2.72;;;;;;;;;;5101927;28;20514;-78
2022/10/16 10:44:33;;;;;;;9.27;1.98;;;;;;;;;;5102624;28;20063;-78
2022/10/16 10:47:12;;;;;;;10.55;1.83;;;;;;;;;;5122208;27;20052;-78
2022/10/16 10:49:44;;;;;;;9.85;1.90;;;;;;;;;;5096538;28;20494;-77
2022/10/16 10:52:53;;;;;;;8.63;1.83;;;;;;;;;;5094745;27;20423;-78
2022/10/16 10:55:28;;;;;;;7.78;1.80;;;;;;;;;;5025958;28;20046;-78
2022/10/16 10:58:13;;;;;;;9.43;2.05;;;;;;;;;;5087565;28;20048;-78
2022/10/16 11:01:01;;;;;;;13.57;2.45;;;;;;;;;;5097631;28;20051;-78
2022/10/16 11:03:33;;;;;;;8.32;1.88;;;;;;;;;;5105269;28;20056;-78
2022/10/16 11:06:05;;;;;;;10.05;2.03;;;;;;;;;;5098900;27;20056;-79
2022/10/16 11:08:31;;;;;;;8.40;1.80;;;;;;;;;;5105475;27;20063;-77
2022/10/16 11:10:59;;;;;;;7.63;1.80;;;;;;;;;;5089322;28;20056;-77
2022/10/16 11:13:26;;;;;;;9.57;2.20;;;;;;;;;;5097196;28;20487;-77
2022/10/16 11:15:55;;;;;;;9.27;2.25;;;;;;;;;;5105170;28;20059;-77
2022/10/16 11:18:24;;;;;;;11.75;2.15;;;;;;;;;;5093461;28;20060;-77
2022/10/16 11:21:04;;;;;;;9.70;1.98;;;;;;;;;;5098647;28;20064;-77
2022/10/16 11:23:37;;;;;;;11.32;1.58;;;;;;;;;;5107340;28;20048;-77
2022/10/16 11:26:06;;;;;;;8.32;1.50;;;;;;;;;;5103205;27;20396;-78
2022/10/16 11:28:35;;;;;;;10.85;2.53;;;;;;;;;;5105925;27;20060;-78
2022/10/16 11:31:13;;;;;;;12.38;2.08;;;;;;;;;;5094559;27;20052;-78
2022/10/16 11:33:49;;;;;;;8.45;1.63;;;;;;;;;;5101738;27;20051;-77
2022/10/16 11:36:17;;;;;;;11.23;1.40;;;;;;;;;;5098026;27;20082;-78
2022/10/16 11:38:54;;;;;;;10.57;2.03;;;;;;;;;;5101991;27;20052;-77
2022/10/16 11:41:27;;;;;;;7.00;1.40;;;;;;;;;;5099408;28;20821;-77
2022/10/16 11:43:53;;;;;;;10.93;1.90;;;;;;;;;;5103232;28;20529;-77
2022/10/16 11:46:20;;;;;;;11.57;1.90;;;;;;;;;;5088466;28;20056;-77
2022/10/16 11:49:07;;;;;;;7.38;1.42;;;;;;;;;;5097479;27;20056;-78
2022/10/16 11:52:06;;;;;;;8.32;1.70;;;;;;;;;;5094538;28;20052;-77
2022/10/16 11:54:49;;;;;;;9.55;1.55;;;;;;;;;;5053857;27;20511;-78
2022/10/16 11:57:21;;;;;;;17.88;1.95;;;;;;;;;;5105183;27;20048;-78
2022/10/16 11:59:51;;;;;;;8.98;1.48;;;;;;;;;;5103669;27;20579;-77
2022/10/16 12:02:36;;;;;;;9.93;1.63;;;;;;;;;;5101341;27;20106;-77
2022/10/16 12:05:29;;;;;;;9.63;1.40;;;;;;;;;;5105551;27;20526;-77
2022/10/16 12:08:10;;;;;;;9.85;1.40;;;;;;;;;;5092575;28;20533;-77
2022/10/16 12:10:37;;;;;;;9.80;1.60;;;;;;;;;;5092204;28;20538;-77
2022/10/16 12:13:05;;;;;;;9.32;2.05;;;;;;;;;;5091577;28;20057;-78
2022/10/16 12:15:32;;;;;;;12.82;4.28;;;;;;;;;;5087945;28;20086;-78
2022/10/16 12:18:23;;;;;;;15.52;3.13;;;;;;;;;;5104981;27;20056;-77
2022/10/16 12:20:59;;;;;;;8.55;2.30;;;;;;;;;;5095649;28;20130;-77
2022/10/16 12:23:25;;;;;;;9.07;1.75;;;;;;;;;;5093167;28;20052;-79
2022/10/16 12:25:55;;;;;;;9.63;3.03;;;;;;;;;;5094244;27;20962;-79
2022/10/16 12:28:25;;;;;;;6.68;1.55;;;;;;;;;;5100550;27;20067;-80
2022/10/16 12:31:01;;;;;;;6.40;1.30;;;;;;;;;;5093777;27;20062;-78
2022/10/16 12:33:27;;;;;;;8.73;1.60;;;;;;;;;;5099786;27;20068;-79
2022/10/16 12:35:54;;;;;;;7.10;1.20;;;;;;;;;;5095696;27;20053;-78
2022/10/16 12:38:24;;;;;;;9.90;1.50;;;;;;;;;;5098026;27;20061;-79
2022/10/16 12:41:01;;;;;;;7.20;1.27;;;;;;;;;;5100624;28;20052;-78
2022/10/16 12:43:27;;;;;;;9.07;1.35;;;;;;;;;;5101060;27;20511;-79
2022/10/16 12:46:04;;;;;;;10.68;1.77;;;;;;;;;;5094587;28;20103;-79
2022/10/16 12:48:30;;;;;;;6.90;1.60;;;;;;;;;;5097490;28;20048;-77
2022/10/16 12:51:28;;;;;;;9.30;1.60;;;;;;;;;;5095713;27;20059;-79
2022/10/16 12:54:18;;;;;;;9.40;1.55;;;;;;;;;;5092587;28;20102;-79
2022/10/16 12:56:59;;;;;;;9.82;1.40;;;;;;;;;;5091963;28;20056;-78
2022/10/16 12:59:37;;;;;;;11.88;1.98;;;;;;;;;;5094316;27;20048;-78
2022/10/16 13:02:07;;;;;;;12.27;2.20;;;;;;;;;;5104859;28;20114;-80
2022/10/16 13:04:39;;;;;;;11.85;2.22;;;;;;;;;;5095554;27;20080;-79
2022/10/16 13:07:12;;;;;;;10.10;1.80;;;;;;;;;;5097438;27;20178;-78
2022/10/16 13:09:41;;;;;;;8.23;1.70;;;;;;;;;;5096120;27;20053;-79
2022/10/16 13:12:08;;;;;;;6.88;1.52;;;;;;;;;;5097722;27;20131;-79
2022/10/16 13:14:46;;;;;;;10.80;1.50;;;;;;;;;;5100060;27;20044;-80
2022/10/16 13:17:25;;;;;;;10.93;1.73;;;;;;;;;;5100125;28;20067;-80
2022/10/16 13:19:52;;;;;;;8.55;1.90;;;;;;;;;;5120269;27;20063;-79
2022/10/16 13:22:26;;;;;;;8.15;1.42;;;;;;;;;;5101629;28;20040;-79
2022/10/16 13:25:02;;;;;;;9.65;1.67;;;;;;;;;;5099816;28;20055;-81
2022/10/16 13:27:44;;;;;;;9.40;2.08;;;;;;;;;;5103287;27;20041;-79
2022/10/16 13:30:16;;;;;;;11.00;2.08;;;;;;;;;;5099621;27;20059;-79
2022/10/16 13:32:46;;;;;;;13.98;2.08;;;;;;;;;;5103949;27;20060;-79
2022/10/16 13:35:27;;;;;;;10.93;1.48;;;;;;;;;;5103954;28;20128;-80
2022/10/16 13:38:12;;;;;;;8.77;1.35;;;;;;;;;;5098492;28;20056;-80
2022/10/16 13:40:48;;;;;;;7.82;1.35;;;;;;;;;;5108588;28;20045;-80
2022/10/16 13:43:16;;;;;;;12.13;1.30;;;;;;;;;;5109985;27;20154;-80
2022/10/16 13:45:52;;;;;;;9.63;1.92;;;;;;;;;;5116633;27;20060;-79
2022/10/16 13:48:18;;;;;;;8.90;1.60;;;;;;;;;;5106645;27;20515;-79
2022/10/16 13:50:47;;;;;;;7.32;1.38;;;;;;;;;;5106815;27;20063;-77
2022/10/16 13:53:13;;;;;;;10.00;1.55;;;;;;;;;;5109318;28;20056;-79
2022/10/16 13:55:40;;;;;;;7.72;1.25;;;;;;;;;;5100503;28;20052;-79
2022/10/16 13:58:13;;;;;;;7.78;1.50;;;;;;;;;;5100524;27;20053;-79
2022/10/16 14:00:41;;;;;;;10.40;1.70;;;;;;;;;;5106337;27;20048;-78
2022/10/16 14:03:12;;;;;;;12.85;1.70;;;;;;;;;;5104712;27;20056;-78
2022/10/16 14:05:46;;;;;;;9.93;1.90;;;;;;;;;;5099838;27;20086;-78
2022/10/16 14:08:12;;;;;;;14.05;2.05;;;;;;;;;;5096826;28;20423;-77
2022/10/16 14:10:39;;;;;;;8.68;1.40;;;;;;;;;;5097999;28;20103;-77
2022/10/16 14:13:06;;;;;;;8.30;1.30;;;;;;;;;;5101422;28;20056;-79
2022/10/16 14:15:34;;;;;;;11.60;1.58;;;;;;;;;;5095294;28;20044;-77
2022/10/16 14:18:00;;;;;;;11.23;1.90;;;;;;;;;;5093532;28;20063;-77
2022/10/16 14:20:31;;;;;;;9.25;1.60;;;;;;;;;;5101559;27;20059;-77
2022/10/16 14:22:59;;;;;;;11.25;1.83;;;;;;;;;;5093583;27;20053;-77
2022/10/16 14:25:30;;;;;;;10.23;1.58;;;;;;;;;;5109161;27;20055;-77
2022/10/16 14:28:15;;;;;;;8.68;1.70;;;;;;;;;;5104466;27;20051;-79
2022/10/16 14:30:53;;;;;;;6.13;1.42;;;;;;;;;;5100201;27;20052;-79
2022/10/16 14:33:20;;;;;;;10.00;1.30;;;;;;;;;;5103835;28;20052;-79
2022/10/16 14:35:57;;;;;;;11.00;2.20;;;;;;;;;;5105681;28;20059;-79
2022/10/16 14:38:24;;;;;;;8.80;1.60;;;;;;;;;;5103168;27;20114;-79
2022/10/16 14:40:50;;;;;;;7.28;1.70;;;;;;;;;;5101560;27;20059;-80
2022/10/16 14:43:21;;;;;;;8.98;1.55;;;;;;;;;;5106769;27;20060;-79
2022/10/16 14:45:51;;;;;;;8.85;1.85;;;;;;;;;;5106153;27;20051;-78
2022/10/16 14:48:18;;;;;;;8.20;1.65;;;;;;;;;;5101821;27;20057;-79
2022/10/16 14:50:45;;;;;;;8.50;1.55;;;;;;;;;;5093004;28;20105;-79
2022/10/16 14:53:12;;;;;;;12.27;1.92;;;;;;;;;;5110095;27;20497;-79
2022/10/16 14:55:42;;;;;;;12.40;2.45;;;;;;;;;;5103827;28;20053;-79
2022/10/16 14:58:16;;;;;;;12.93;2.38;;;;;;;;;;5106125;28;20055;-78